Terminal Aerodrome Forecast
Issued by NWS Dallas/Fort Worth, TX

Home | Current Version | Previous Version | Text Only | Print | Product List | Glossary On
Versions: 1 2 3 4 5 6 7 8 9 10 11 12 13 14 15 16 17 18 19 20 21 22 23 24 25 26 27 28 29 30 31 32 33
911
FTUS44 KFWD 241459 AAC
TAFDFW
TAF AMD
KDFW 241459Z 2415/2518 15007KT P6SM FEW008 BKN150
     FM242000 18009KT P6SM VCTS SCT060CB BKN150
     FM250000 15008KT P6SM SCT150=

USA.gov is the U.S. government's official web portal to all federal, state and local government web resources and services.